createdAt,value
2023-03-20T00:01:56.781Z,21.25
2023-03-20T00:04:26.160Z,22.35
2023-03-20T00:06:54.266Z,21.77
2023-03-20T00:09:22.471Z,22.10
2023-03-20T00:11:51.810Z,24.90
2023-03-20T00:14:24.394Z,21.90
2023-03-20T00:16:52.692Z,23.85
2023-03-20T00:19:23.357Z,23.17
2023-03-20T00:21:52.220Z,20.45
2023-03-20T00:24:20.637Z,17.15
2023-03-20T00:26:49.888Z,27.48
2023-03-20T00:29:23.292Z,22.02
2023-03-20T00:31:51.876Z,24.67
2023-03-20T00:34:22.241Z,25.05
2023-03-20T00:36:50.476Z,22.80
2023-03-20T00:39:18.400Z,25.45
2023-03-20T00:41:49.530Z,25.52
2023-03-20T00:44:23.355Z,33.70
2023-03-20T00:46:53.676Z,31.50
2023-03-20T00:49:23.990Z,26.40
2023-03-20T00:51:52.616Z,24.65
2023-03-20T00:54:20.744Z,30.67
2023-03-20T00:56:53.472Z,27.17
2023-03-20T00:59:25.054Z,28.15
2023-03-20T01:01:53.502Z,27.95
2023-03-20T01:04:22.930Z,21.88
2023-03-20T01:06:52.642Z,24.08
2023-03-20T01:09:20.855Z,25.20
2023-03-20T01:11:48.737Z,28.35
2023-03-20T01:14:18.055Z,31.67
2023-03-20T01:16:47.647Z,26.42
2023-03-20T01:19:16.941Z,29.05
2023-03-20T01:21:45.135Z,25.33
2023-03-20T01:24:12.967Z,27.45
2023-03-20T01:26:43.293Z,28.13
2023-03-20T01:29:19.062Z,30.05
2023-03-20T01:31:49.374Z,22.88
2023-03-20T01:34:19.464Z,24.55
2023-03-20T01:36:51.013Z,17.05
2023-03-20T01:39:21.713Z,19.10
2023-03-20T01:41:50.996Z,18.90
2023-03-20T01:44:22.558Z,18.90
2023-03-20T01:46:56.411Z,19.08
2023-03-20T01:50:14.174Z,19.08
2023-03-20T01:52:42.593Z,18.30
2023-03-20T01:55:10.566Z,17.25
2023-03-20T01:57:39.997Z,14.25
2023-03-20T02:00:13.798Z,19.63
2023-03-20T02:02:48.235Z,14.82
2023-03-20T02:05:40.590Z,18.40
2023-03-20T02:08:18.782Z,10.95
2023-03-20T02:10:49.161Z,13.27
2023-03-20T02:13:28.045Z,13.88
2023-03-20T02:16:03.929Z,11.60
2023-03-20T02:18:48.915Z,12.30
2023-03-20T02:21:54.970Z,12.10
2023-03-20T02:24:49.518Z,13.32
2023-03-20T02:27:25.882Z,11.00
2023-03-20T02:30:26.676Z,14.40
2023-03-20T02:33:22.975Z,15.77
2023-03-20T02:36:32.470Z,11.90
2023-03-20T02:39:09.492Z,12.23
2023-03-20T02:41:41.400Z,11.55
2023-03-20T02:44:14.233Z,11.25
2023-03-20T02:46:49.132Z,11.45
2023-03-20T02:49:32.940Z,12.15
2023-03-20T02:52:05.594Z,17.13
2023-03-20T02:54:42.245Z,13.13
2023-03-20T02:57:14.827Z,14.75
2023-03-20T02:59:47.811Z,21.20
2023-03-20T03:02:18.809Z,18.48
2023-03-20T03:04:51.028Z,18.45
2023-03-20T03:07:21.475Z,18.92
2023-03-20T03:09:55.307Z,25.58
2023-03-20T03:12:25.812Z,23.23
2023-03-20T03:14:54.906Z,19.77
2023-03-20T03:17:25.234Z,19.60
2023-03-20T03:19:55.756Z,20.45
2023-03-20T03:22:24.450Z,21.63
2023-03-20T03:24:54.988Z,18.15
2023-03-20T03:27:26.146Z,19.08
2023-03-20T03:29:56.761Z,16.55
2023-03-20T03:32:29.580Z,28.70
2023-03-20T03:34:57.855Z,20.77
2023-03-20T03:37:41.997Z,24.92
2023-03-20T03:40:18.435Z,23.17
2023-03-20T03:42:52.795Z,23.13
2023-03-20T03:45:25.456Z,21.15
2023-03-20T03:47:56.815Z,26.35
2023-03-20T03:50:27.820Z,29.70
2023-03-20T03:53:01.542Z,26.05
2023-03-20T03:55:34.526Z,30.55
2023-03-20T03:58:10.370Z,28.90
2023-03-20T04:00:39.374Z,24.48
2023-03-20T04:03:08.860Z,31.10
2023-03-20T04:05:39.279Z,21.08
2023-03-20T04:08:07.637Z,30.15
2023-03-20T04:10:37.031Z,33.10
2023-03-20T04:13:05.319Z,35.10
2023-03-20T04:15:33.792Z,27.33
2023-03-20T04:18:01.965Z,29.05
2023-03-20T04:20:30.765Z,30.05
2023-03-20T04:22:58.740Z,29.88
2023-03-20T04:25:27.919Z,31.35
2023-03-20T04:27:58.758Z,31.88
2023-03-20T04:30:36.866Z,29.15
2023-03-20T04:33:35.238Z,33.20
2023-03-20T04:36:41.939Z,30.63
2023-03-20T04:39:12.741Z,32.10
2023-03-20T04:41:40.942Z,32.85
2023-03-20T04:44:10.422Z,28.33
2023-03-20T04:46:38.774Z,27.52
2023-03-20T04:49:14.251Z,40.22
2023-03-20T04:51:42.340Z,38.33
2023-03-20T04:54:12.046Z,32.80
2023-03-20T04:56:40.031Z,36.22
2023-03-20T04:59:14.811Z,32.10
2023-03-20T05:01:42.935Z,38.72
2023-03-20T05:04:10.998Z,33.20
2023-03-20T05:06:39.354Z,32.45
2023-03-20T05:09:07.309Z,31.55
2023-03-20T05:11:37.200Z,32.70
2023-03-20T05:14:20.605Z,37.83
2023-03-20T05:17:07.195Z,33.08
2023-03-20T05:20:01.354Z,31.90
2023-03-20T05:22:55.670Z,33.75
2023-03-20T05:25:52.478Z,34.25
2023-03-20T05:28:34.885Z,33.17
2023-03-20T05:31:16.034Z,34.53
2023-03-20T05:33:58.769Z,30.92
2023-03-20T05:36:38.081Z,29.35
2023-03-20T05:39:17.970Z,31.17
2023-03-20T05:42:08.362Z,35.33
2023-03-20T05:44:48.124Z,26.60
2023-03-20T05:47:20.422Z,34.10
2023-03-20T05:50:14.979Z,32.35
2023-03-20T05:53:00.846Z,29.75
2023-03-20T05:55:41.009Z,26.38
2023-03-20T05:58:37.996Z,28.48
2023-03-20T06:01:28.228Z,26.63
2023-03-20T06:04:20.547Z,26.60
2023-03-20T06:07:07.512Z,24.35
2023-03-20T06:09:36.917Z,21.80
2023-03-20T06:12:10.053Z,28.73
2023-03-20T06:14:38.588Z,28.67
2023-03-20T06:17:09.121Z,24.95
2023-03-20T06:19:38.707Z,28.20
2023-03-20T06:22:07.492Z,26.75
2023-03-20T06:24:36.072Z,24.85
2023-03-20T06:27:04.642Z,20.30
2023-03-20T06:29:32.979Z,24.67
2023-03-20T06:32:12.673Z,24.50
2023-03-20T06:34:42.323Z,22.70
2023-03-20T06:37:10.200Z,25.63
2023-03-20T06:39:38.146Z,22.88
2023-03-20T06:42:10.831Z,28.65
2023-03-20T06:44:39.022Z,27.30
2023-03-20T06:47:36.067Z,21.05
2023-03-20T06:50:06.201Z,24.58
2023-03-20T06:52:34.261Z,26.98
2023-03-20T06:55:35.919Z,23.08
2023-03-20T06:58:04.206Z,25.00
2023-03-20T07:00:34.335Z,26.85
2023-03-20T07:03:05.823Z,23.02
2023-03-20T07:05:35.478Z,22.65
2023-03-20T07:08:07.593Z,23.38
2023-03-20T07:10:35.613Z,24.88
2023-03-20T07:13:03.598Z,26.48
2023-03-20T07:15:32.677Z,20.33
2023-03-20T07:18:00.846Z,25.38
2023-03-20T07:20:29.380Z,31.85
2023-03-20T07:22:58.976Z,28.38
2023-03-20T07:25:41.845Z,27.50
2023-03-20T07:28:12.694Z,21.90
2023-03-20T07:30:44.870Z,23.95
2023-03-20T07:33:16.974Z,20.55
2023-03-20T07:35:45.865Z,28.17
2023-03-20T07:38:15.330Z,24.55
2023-03-20T07:40:52.007Z,23.70
2023-03-20T07:43:20.132Z,26.40
2023-03-20T07:46:09.096Z,26.80
2023-03-20T07:48:39.057Z,23.88
2023-03-20T07:51:07.569Z,26.77
2023-03-20T07:53:37.148Z,29.58
2023-03-20T07:56:06.202Z,21.75
2023-03-20T07:58:34.605Z,26.33
2023-03-20T08:01:04.136Z,27.73
2023-03-20T08:03:33.107Z,18.63
2023-03-20T08:06:01.823Z,25.48
2023-03-20T08:08:30.173Z,24.80
2023-03-20T08:10:59.471Z,22.92
2023-03-20T08:13:27.545Z,22.05
2023-03-20T08:15:55.507Z,25.60
2023-03-20T08:18:23.571Z,22.15
2023-03-20T08:20:51.856Z,22.77
2023-03-20T08:23:20.931Z,25.15
2023-03-20T08:25:49.672Z,27.70
2023-03-20T08:28:19.461Z,21.50
2023-03-20T08:30:47.655Z,24.67
2023-03-20T08:33:16.414Z,26.45
2023-03-20T08:35:44.764Z,23.77
2023-03-20T08:38:14.211Z,21.25
2023-03-20T08:40:42.756Z,20.50
2023-03-20T08:43:10.914Z,20.85
2023-03-20T08:45:40.449Z,19.25
2023-03-20T08:48:08.775Z,22.77
2023-03-20T08:50:37.042Z,17.33
2023-03-20T08:53:05.405Z,23.13
2023-03-20T08:55:33.748Z,19.88
2023-03-20T08:58:01.795Z,17.85
2023-03-20T09:00:29.765Z,23.40
2023-03-20T09:02:59.022Z,16.77
2023-03-20T09:05:26.986Z,19.10
2023-03-20T09:07:55.019Z,24.17
2023-03-20T09:10:23.174Z,15.93
2023-03-20T09:12:51.236Z,21.10
2023-03-20T09:15:19.284Z,20.35
2023-03-20T09:17:47.217Z,22.90
2023-03-20T09:20:16.995Z,26.20
2023-03-20T09:22:45.582Z,20.25
2023-03-20T09:25:14.272Z,17.33
2023-03-20T09:27:42.242Z,19.23
2023-03-20T09:30:11.810Z,22.15
2023-03-20T09:32:40.081Z,17.05
2023-03-20T09:35:08.892Z,15.63
2023-03-20T09:37:38.096Z,17.67
2023-03-20T09:40:07.339Z,23.77
2023-03-20T09:42:44.071Z,19.08
2023-03-20T09:45:16.354Z,17.17
2023-03-20T09:47:53.651Z,15.88
2023-03-20T09:50:28.647Z,16.80
2023-03-20T09:53:07.307Z,20.60
2023-03-20T09:55:37.200Z,17.75
2023-03-20T09:58:11.735Z,14.55
2023-03-20T10:00:42.054Z,22.35
2023-03-20T10:03:18.317Z,15.52
2023-03-20T10:05:48.631Z,14.68
2023-03-20T10:08:22.448Z,21.42
2023-03-20T10:10:52.697Z,11.63
2023-03-20T10:13:39.425Z,15.48
2023-03-20T10:16:16.419Z,13.25
2023-03-20T10:18:49.142Z,15.30
2023-03-20T10:21:19.191Z,10.35
2023-03-20T10:23:56.526Z,12.75
2023-03-20T10:26:25.453Z,15.63
2023-03-20T10:28:57.617Z,12.82
2023-03-20T10:31:37.536Z,12.82
2023-03-20T10:34:17.939Z,8.85
2023-03-20T10:36:59.638Z,14.98
2023-03-20T10:39:39.057Z,13.10
2023-03-20T10:42:15.122Z,9.85
2023-03-20T10:44:46.366Z,10.23
2023-03-20T10:47:17.256Z,11.27
2023-03-20T10:49:50.048Z,10.60
2023-03-20T10:52:22.657Z,13.30
2023-03-20T10:54:56.850Z,11.02
2023-03-20T10:57:26.696Z,13.02
2023-03-20T10:59:56.146Z,9.15
2023-03-20T11:02:27.442Z,13.35
2023-03-20T11:04:55.417Z,9.60
2023-03-20T11:07:25.588Z,12.95
2023-03-20T11:12:48.065Z,11.60
2023-03-20T11:15:22.245Z,13.30
2023-03-20T11:17:57.928Z,13.18
2023-03-20T11:20:26.662Z,10.50
2023-03-20T11:23:00.195Z,16.90
2023-03-20T11:25:32.209Z,13.85
2023-03-20T11:28:22.616Z,19.98
2023-03-20T11:31:03.961Z,17.55
2023-03-20T11:33:33.715Z,16.02
2023-03-20T11:36:01.751Z,13.25
2023-03-20T11:38:31.700Z,13.48
2023-03-20T11:40:59.622Z,14.45
2023-03-20T11:43:29.547Z,13.88
2023-03-20T11:45:58.849Z,18.00
2023-03-20T11:48:28.737Z,23.70
2023-03-20T11:51:02.005Z,17.00
2023-03-20T11:53:31.648Z,18.57
2023-03-20T11:56:11.990Z,16.25
2023-03-20T11:58:52.198Z,16.10
2023-03-20T12:01:22.220Z,11.50
2023-03-20T12:03:55.579Z,18.52
2023-03-20T12:06:25.002Z,18.10
2023-03-20T12:08:56.592Z,15.60
2023-03-20T12:11:39.513Z,14.05
2023-03-20T12:14:17.206Z,18.90
2023-03-20T12:16:45.897Z,20.65
2023-03-20T12:19:18.173Z,17.65
2023-03-20T12:21:48.538Z,21.42
2023-03-20T12:24:22.957Z,16.65
2023-03-20T12:26:55.589Z,21.95
2023-03-20T12:29:29.705Z,17.65
2023-03-20T12:32:01.190Z,20.38
2023-03-20T12:34:33.251Z,17.90
2023-03-20T12:37:01.541Z,22.45
2023-03-20T12:39:34.403Z,27.15
2023-03-20T12:42:10.932Z,18.27
2023-03-20T12:44:42.975Z,20.65
2023-03-20T12:47:18.783Z,21.60
2023-03-20T12:49:52.278Z,16.20
2023-03-20T12:52:27.927Z,23.40
2023-03-20T12:55:17.964Z,26.55
2023-03-20T12:57:54.379Z,24.58
2023-03-20T13:00:29.052Z,24.67
2023-03-20T13:03:06.258Z,24.33
2023-03-20T13:05:41.821Z,26.60
2023-03-20T13:08:19.610Z,26.80
2023-03-20T13:10:53.853Z,21.38
2023-03-20T13:13:29.478Z,29.02
2023-03-20T13:16:09.174Z,21.38
2023-03-20T13:18:46.689Z,22.15
2023-03-20T13:21:18.369Z,30.88
2023-03-20T13:23:51.252Z,16.70
2023-03-20T13:26:27.905Z,21.98
2023-03-20T13:29:00.431Z,19.15
2023-03-20T13:31:38.124Z,23.75
2023-03-20T13:34:14.424Z,24.38
2023-03-20T13:36:53.122Z,24.65
2023-03-20T13:39:25.862Z,27.35
2023-03-20T13:41:54.855Z,27.50
2023-03-20T13:44:24.433Z,22.00
2023-03-20T13:46:56.754Z,29.25
2023-03-20T13:49:28.824Z,26.52
2023-03-20T13:51:59.305Z,18.60
2023-03-20T13:54:39.410Z,32.80
2023-03-20T13:57:13.220Z,33.15
2023-03-20T13:59:50.833Z,25.80
2023-03-20T14:02:41.179Z,19.73
2023-03-20T14:05:13.779Z,29.90
2023-03-20T14:07:44.913Z,28.02
2023-03-20T14:10:36.083Z,20.00
2023-03-20T14:13:07.555Z,24.17
2023-03-20T14:15:37.210Z,23.52
2023-03-20T14:18:08.515Z,29.20
2023-03-20T14:20:38.963Z,21.20
2023-03-20T14:23:07.466Z,27.48
2023-03-20T14:25:40.429Z,30.60
2023-03-20T14:28:24.670Z,26.10
2023-03-20T14:30:52.764Z,31.92
2023-03-20T14:33:32.329Z,36.50
2023-03-20T14:36:20.538Z,24.27
2023-03-20T14:38:56.260Z,27.30
2023-03-20T14:41:28.530Z,20.88
2023-03-20T14:44:04.440Z,22.50
2023-03-20T14:46:42.205Z,24.92
2023-03-20T14:49:41.470Z,18.88
2023-03-20T14:52:20.016Z,26.73
2023-03-20T14:54:53.357Z,25.13
2023-03-20T14:57:29.307Z,21.60
2023-03-20T14:59:57.229Z,18.75
2023-03-20T15:02:27.060Z,18.25
2023-03-20T15:04:57.413Z,16.90
2023-03-20T15:07:27.682Z,24.15
2023-03-20T15:09:59.246Z,28.38
2023-03-20T15:12:28.595Z,29.42
2023-03-20T15:14:58.445Z,25.23
2023-03-20T15:17:28.573Z,23.20
2023-03-20T15:20:08.242Z,30.10
2023-03-20T15:22:36.099Z,21.58
2023-03-20T15:25:04.375Z,25.55
2023-03-20T15:27:32.374Z,30.35
2023-03-20T15:30:01.493Z,19.17
2023-03-20T15:32:30.090Z,25.40
2023-03-20T15:34:58.183Z,22.05
2023-03-20T15:37:28.253Z,24.20
2023-03-20T15:39:59.103Z,19.80
2023-03-20T15:42:27.875Z,22.15
2023-03-20T15:44:56.912Z,23.40
2023-03-20T15:47:25.946Z,18.75
2023-03-20T15:49:54.874Z,31.48
2023-03-20T15:52:30.501Z,20.95
2023-03-20T15:54:59.979Z,25.40
2023-03-20T15:57:35.566Z,27.75
2023-03-20T16:00:06.039Z,41.30
2023-03-20T16:02:34.621Z,42.88
2023-03-20T16:05:02.679Z,31.73
2023-03-20T16:07:33.766Z,32.58
2023-03-20T16:10:02.020Z,47.92
2023-03-20T16:12:29.836Z,49.67
2023-03-20T16:14:59.252Z,29.63
2023-03-20T16:17:27.737Z,28.30
2023-03-20T16:19:56.210Z,31.88
2023-03-20T16:22:26.498Z,26.23
2023-03-20T16:24:58.347Z,29.70
2023-03-20T16:27:28.993Z,28.27
2023-03-20T16:29:57.445Z,26.30
2023-03-20T16:32:33.148Z,22.70
2023-03-20T16:35:03.561Z,27.77
2023-03-20T16:37:33.482Z,22.55
2023-03-20T16:40:16.462Z,19.48
2023-03-20T16:42:45.575Z,35.95
2023-03-20T16:45:21.742Z,26.08
2023-03-20T16:47:50.428Z,23.27
2023-03-20T16:50:21.190Z,26.40
2023-03-20T16:52:51.850Z,28.02
2023-03-20T16:55:25.675Z,35.30
2023-03-20T16:57:56.597Z,28.92
2023-03-20T17:00:28.788Z,33.25
2023-03-20T17:03:07.126Z,27.60
2023-03-20T17:05:46.936Z,27.80
2023-03-20T17:08:20.259Z,36.90
2023-03-20T17:10:52.310Z,25.95
2023-03-20T17:13:20.382Z,33.58
2023-03-20T17:15:48.330Z,28.35
2023-03-20T17:18:16.463Z,30.77
2023-03-20T17:20:44.277Z,32.75
2023-03-20T17:23:14.851Z,29.45
2023-03-20T17:25:43.085Z,28.42
2023-03-20T17:28:20.100Z,35.83
2023-03-20T17:30:49.613Z,34.28
2023-03-20T17:33:19.108Z,33.72
2023-03-20T17:35:47.829Z,33.22
2023-03-20T17:38:21.499Z,34.08
2023-03-20T17:40:49.892Z,32.95
2023-03-20T17:43:19.814Z,39.78
2023-03-20T17:45:48.522Z,21.00
2023-03-20T17:48:18.148Z,41.53
2023-03-20T17:50:46.381Z,29.60
2023-03-20T17:53:18.952Z,30.55
2023-03-20T17:55:46.817Z,39.80
2023-03-20T17:58:21.755Z,33.90
2023-03-20T18:00:50.046Z,32.08
2023-03-20T18:03:18.251Z,30.00
2023-03-20T18:05:46.944Z,32.03
2023-03-20T18:08:16.820Z,30.08
2023-03-20T18:10:45.174Z,28.73
2023-03-20T18:13:13.264Z,29.33
2023-03-20T18:15:44.232Z,27.73
2023-03-20T18:18:12.374Z,27.98
2023-03-20T18:20:41.273Z,36.60
2023-03-20T18:23:09.805Z,31.20
2023-03-20T18:25:37.686Z,34.17
2023-03-20T18:28:06.908Z,32.10
2023-03-20T18:30:36.498Z,30.77
2023-03-20T18:33:06.905Z,34.83
2023-03-20T18:35:35.363Z,36.63
2023-03-20T18:38:14.030Z,30.20
2023-03-20T18:40:50.043Z,33.05
2023-03-20T18:43:18.064Z,32.78
2023-03-20T18:45:45.869Z,29.55
2023-03-20T18:48:15.228Z,33.03
2023-03-20T18:50:43.646Z,31.33
2023-03-20T18:53:11.766Z,33.92
2023-03-20T18:55:39.730Z,36.83
2023-03-20T18:58:09.088Z,36.80
2023-03-20T19:00:40.279Z,41.38
2023-03-20T19:03:09.166Z,39.42
2023-03-20T19:05:38.439Z,39.22
2023-03-20T19:08:06.797Z,31.33
2023-03-20T19:10:37.312Z,42.67
2023-03-20T19:13:06.541Z,42.25
2023-03-20T19:15:36.306Z,42.55
2023-03-20T19:18:05.151Z,34.80
2023-03-20T19:20:37.122Z,40.33
2023-03-20T19:23:07.694Z,38.30
2023-03-20T19:25:36.507Z,43.35
2023-03-20T19:28:05.390Z,45.60
2023-03-20T19:30:34.557Z,42.55
2023-03-20T19:33:03.039Z,46.30
2023-03-20T19:35:54.516Z,49.33
2023-03-20T19:38:22.571Z,41.10
2023-03-20T19:40:53.273Z,50.92
2023-03-20T19:43:21.598Z,41.70
2023-03-20T19:45:51.909Z,34.97
2023-03-20T19:48:21.791Z,50.22
2023-03-20T19:50:51.135Z,52.60
2023-03-20T19:53:24.953Z,50.15
2023-03-20T19:55:53.189Z,40.40
2023-03-20T19:58:21.625Z,41.58
2023-03-20T20:00:59.429Z,39.50
2023-03-20T20:03:29.111Z,47.33
2023-03-20T20:05:57.094Z,45.17
2023-03-20T20:08:43.456Z,48.03
2023-03-20T20:11:15.625Z,40.58
2023-03-20T20:16:32.658Z,50.78
2023-03-20T20:19:00.505Z,48.65
2023-03-20T20:24:18.572Z,39.78
2023-03-20T20:26:54.189Z,40.78
2023-03-20T20:29:24.599Z,53.88
2023-03-20T20:31:52.406Z,47.17
2023-03-20T20:39:57.887Z,39.47
2023-03-20T20:42:25.886Z,42.17
2023-03-20T20:44:53.844Z,37.40
2023-03-20T20:47:21.887Z,43.13
2023-03-20T20:49:49.839Z,51.05
2023-03-20T20:52:17.676Z,47.33
2023-03-20T20:54:45.666Z,41.83
2023-03-20T20:57:15.289Z,47.17
2023-03-20T20:59:43.023Z,43.05
2023-03-20T21:02:12.100Z,51.45
2023-03-20T21:04:41.259Z,42.58
2023-03-20T21:07:11.685Z,42.35
2023-03-20T21:09:39.967Z,38.55
2023-03-20T21:12:10.398Z,41.58
2023-03-20T21:14:39.969Z,43.10
2023-03-20T21:17:09.289Z,41.80
2023-03-20T21:19:38.698Z,35.00
2023-03-20T21:22:07.835Z,44.53
2023-03-20T21:24:36.161Z,49.40
2023-03-20T21:27:05.612Z,46.67
2023-03-20T21:29:33.548Z,40.35
2023-03-20T21:32:02.843Z,45.33
2023-03-20T21:34:30.721Z,41.10
2023-03-20T21:37:00.066Z,39.72
2023-03-20T21:39:30.457Z,38.42
2023-03-20T21:41:58.643Z,40.30
2023-03-20T21:53:25.786Z,43.55
2023-03-20T21:56:40.143Z,44.15
2023-03-20T22:05:09.349Z,44.60
2023-03-20T22:10:26.644Z,44.30
2023-03-20T22:16:12.916Z,41.78
2023-03-20T22:21:55.999Z,38.47
2023-03-20T22:27:26.978Z,46.47
2023-03-20T22:33:03.560Z,53.92
2023-03-20T22:36:02.873Z,47.25
2023-03-20T22:44:24.750Z,41.58
2023-03-20T22:46:43.916Z,41.08
2023-03-20T22:49:02.917Z,41.58
2023-03-20T22:51:36.896Z,41.35
2023-03-20T22:54:10.338Z,39.30
2023-03-20T22:56:38.116Z,39.15
2023-03-20T22:59:06.969Z,48.90
2023-03-20T23:01:34.796Z,37.85
2023-03-20T23:04:02.827Z,36.28
2023-03-20T23:06:30.795Z,37.78
2023-03-20T23:09:03.249Z,35.72
2023-03-20T23:11:35.333Z,37.50
2023-03-20T23:14:03.828Z,42.00
2023-03-20T23:16:33.829Z,41.00
2023-03-20T23:19:01.619Z,40.63
2023-03-20T23:21:29.591Z,37.05
2023-03-20T23:23:57.544Z,46.42
2023-03-20T23:26:25.693Z,41.20
2023-03-20T23:28:54.788Z,30.20
2023-03-20T23:31:24.700Z,33.60
2023-03-20T23:33:54.636Z,34.53
2023-03-20T23:36:35.295Z,34.08
2023-03-20T23:39:03.801Z,34.75
2023-03-20T23:41:58.018Z,32.80
2023-03-20T23:44:21.204Z,32.92
2023-03-20T23:46:49.206Z,30.95
2023-03-20T23:49:17.510Z,30.98
2023-03-20T23:51:45.604Z,28.50
2023-03-20T23:54:13.839Z,35.22
2023-03-20T23:56:41.728Z,36.22
2023-03-20T23:59:20.565Z,33.30
